Alief, Texas
Current Conditions -  °F | °C
As of 7:53 AM on Wednesday 22 Oct 2014 (Local Time) from KSGR Reporting Station
Haze Haze  
Wind Chill: 18°   Ceiling: Unl
Heat Index: 18°   Visibility: 6mi
Dew Point: 16°   Wind: 5mph
Humidity: 87%   Direction: 50°NE
Pressure: 30.06"   Gusts: NA
Location:  29.71°N, 95.6°W
Report Text: KSGR 221253Z 05004KT 6SM BR CLR 18/16 A3006 RMK AO2 SLP182 T01830161
Loading
Personal Weather Stations






























Interactive Weather Map New forecast layout! Learn more

10-Day Weather Forecast

Advertisements
Track Severe Weather on mobile